sensor_id;sensor_type;location;lat;lon;timestamp;P1;durP1;ratioP1;P2;durP2;ratioP2
35699;SDS011;21818;51.078;12.108;2023-04-15T00:01:28;4.35;;;3.10;;
35699;SDS011;21818;51.078;12.108;2023-04-15T00:03:54;5.13;;;3.58;;
35699;SDS011;21818;51.078;12.108;2023-04-15T00:06:20;5.50;;;3.80;;
35699;SDS011;21818;51.078;12.108;2023-04-15T00:08:47;4.65;;;3.25;;
35699;SDS011;21818;51.078;12.108;2023-04-15T00:11:13;5.47;;;3.80;;
35699;SDS011;21818;51.078;12.108;2023-04-15T00:13:39;4.85;;;3.35;;
35699;SDS011;21818;51.078;12.108;2023-04-15T00:16:05;4.43;;;3.22;;
35699;SDS011;21818;51.078;12.108;2023-04-15T00:18:32;3.65;;;2.72;;
35699;SDS011;21818;51.078;12.108;2023-04-15T00:20:58;4.13;;;2.88;;
35699;SDS011;21818;51.078;12.108;2023-04-15T00:23:24;5.07;;;3.15;;
35699;SDS011;21818;51.078;12.108;2023-04-15T00:25:50;3.90;;;2.97;;
35699;SDS011;21818;51.078;12.108;2023-04-15T00:28:15;3.58;;;2.85;;
35699;SDS011;21818;51.078;12.108;2023-04-15T00:30:41;4.93;;;3.50;;
35699;SDS011;21818;51.078;12.108;2023-04-15T00:33:07;4.43;;;3.13;;
35699;SDS011;21818;51.078;12.108;2023-04-15T00:35:33;4.78;;;3.47;;
35699;SDS011;21818;51.078;12.108;2023-04-15T00:38:00;4.00;;;3.35;;
35699;SDS011;21818;51.078;12.108;2023-04-15T00:40:26;4.95;;;3.20;;
35699;SDS011;21818;51.078;12.108;2023-04-15T00:42:51;4.13;;;3.08;;
35699;SDS011;21818;51.078;12.108;2023-04-15T00:45:17;3.63;;;2.67;;
35699;SDS011;21818;51.078;12.108;2023-04-15T00:47:43;4.80;;;3.60;;
35699;SDS011;21818;51.078;12.108;2023-04-15T00:50:09;4.07;;;2.90;;
35699;SDS011;21818;51.078;12.108;2023-04-15T00:52:35;3.85;;;3.22;;
35699;SDS011;21818;51.078;12.108;2023-04-15T00:55:01;4.22;;;2.92;;
35699;SDS011;21818;51.078;12.108;2023-04-15T00:57:28;4.20;;;2.70;;
35699;SDS011;21818;51.078;12.108;2023-04-15T00:59:54;3.38;;;2.72;;
35699;SDS011;21818;51.078;12.108;2023-04-15T01:02:20;4.20;;;3.20;;
35699;SDS011;21818;51.078;12.108;2023-04-15T01:04:47;4.78;;;3.33;;
35699;SDS011;21818;51.078;12.108;2023-04-15T01:07:13;4.32;;;3.38;;
35699;SDS011;21818;51.078;12.108;2023-04-15T01:09:39;4.47;;;3.20;;
35699;SDS011;21818;51.078;12.108;2023-04-15T01:12:05;3.97;;;3.03;;
35699;SDS011;21818;51.078;12.108;2023-04-15T01:14:33;4.03;;;2.88;;
35699;SDS011;21818;51.078;12.108;2023-04-15T01:16:58;4.22;;;3.33;;
35699;SDS011;21818;51.078;12.108;2023-04-15T01:19:24;3.90;;;3.00;;
35699;SDS011;21818;51.078;12.108;2023-04-15T01:21:51;4.15;;;3.25;;
35699;SDS011;21818;51.078;12.108;2023-04-15T01:24:17;4.05;;;3.05;;
35699;SDS011;21818;51.078;12.108;2023-04-15T01:26:43;5.22;;;3.53;;
35699;SDS011;21818;51.078;12.108;2023-04-15T01:29:09;5.03;;;3.50;;
35699;SDS011;21818;51.078;12.108;2023-04-15T01:31:35;4.35;;;3.25;;
35699;SDS011;21818;51.078;12.108;2023-04-15T01:34:01;4.13;;;2.95;;
35699;SDS011;21818;51.078;12.108;2023-04-15T01:36:27;5.35;;;3.65;;
35699;SDS011;21818;51.078;12.108;2023-04-15T01:38:54;3.72;;;2.75;;
35699;SDS011;21818;51.078;12.108;2023-04-15T01:41:21;2.60;;;2.35;;
35699;SDS011;21818;51.078;12.108;2023-04-15T01:43:53;4.18;;;2.78;;
35699;SDS011;21818;51.078;12.108;2023-04-15T01:46:19;4.68;;;2.75;;
35699;SDS011;21818;51.078;12.108;2023-04-15T01:48:45;5.03;;;2.72;;
35699;SDS011;21818;51.078;12.108;2023-04-15T01:51:11;3.13;;;2.70;;
35699;SDS011;21818;51.078;12.108;2023-04-15T01:53:36;3.67;;;2.72;;
35699;SDS011;21818;51.078;12.108;2023-04-15T01:56:02;3.30;;;2.70;;
35699;SDS011;21818;51.078;12.108;2023-04-15T01:58:28;3.95;;;2.88;;
35699;SDS011;21818;51.078;12.108;2023-04-15T02:00:54;4.22;;;3.08;;
35699;SDS011;21818;51.078;12.108;2023-04-15T02:03:19;4.85;;;3.22;;
35699;SDS011;21818;51.078;12.108;2023-04-15T02:05:45;4.10;;;3.25;;
35699;SDS011;21818;51.078;12.108;2023-04-15T02:08:11;4.03;;;3.10;;
35699;SDS011;21818;51.078;12.108;2023-04-15T02:10:37;4.50;;;3.17;;
35699;SDS011;21818;51.078;12.108;2023-04-15T02:13:02;3.40;;;2.42;;
35699;SDS011;21818;51.078;12.108;2023-04-15T02:15:28;3.15;;;2.25;;
35699;SDS011;21818;51.078;12.108;2023-04-15T02:17:54;3.08;;;2.45;;
35699;SDS011;21818;51.078;12.108;2023-04-15T02:20:20;2.03;;;1.77;;
35699;SDS011;21818;51.078;12.108;2023-04-15T02:22:46;2.67;;;2.10;;
35699;SDS011;21818;51.078;12.108;2023-04-15T02:25:12;2.80;;;2.00;;
35699;SDS011;21818;51.078;12.108;2023-04-15T02:27:38;3.03;;;2.03;;
35699;SDS011;21818;51.078;12.108;2023-04-15T02:30:04;2.70;;;2.10;;
35699;SDS011;21818;51.078;12.108;2023-04-15T02:32:31;3.00;;;1.90;;
35699;SDS011;21818;51.078;12.108;2023-04-15T02:35:01;2.47;;;2.00;;
35699;SDS011;21818;51.078;12.108;2023-04-15T02:37:28;3.33;;;1.88;;
35699;SDS011;21818;51.078;12.108;2023-04-15T02:39:55;2.58;;;2.17;;
35699;SDS011;21818;51.078;12.108;2023-04-15T02:42:21;2.20;;;1.80;;
35699;SDS011;21818;51.078;12.108;2023-04-15T02:44:46;2.15;;;1.65;;
35699;SDS011;21818;51.078;12.108;2023-04-15T02:47:12;4.60;;;2.00;;
35699;SDS011;21818;51.078;12.108;2023-04-15T02:49:38;2.53;;;2.00;;
35699;SDS011;21818;51.078;12.108;2023-04-15T02:52:04;2.83;;;1.70;;
35699;SDS011;21818;51.078;12.108;2023-04-15T02:54:30;3.55;;;1.98;;
35699;SDS011;21818;51.078;12.108;2023-04-15T02:56:58;2.40;;;1.70;;
35699;SDS011;21818;51.078;12.108;2023-04-15T02:59:23;2.35;;;1.73;;
35699;SDS011;21818;51.078;12.108;2023-04-15T03:01:49;2.35;;;1.30;;
35699;SDS011;21818;51.078;12.108;2023-04-15T03:04:15;1.90;;;1.52;;
35699;SDS011;21818;51.078;12.108;2023-04-15T03:06:40;1.75;;;1.42;;
35699;SDS011;21818;51.078;12.108;2023-04-15T03:09:06;2.05;;;1.52;;
35699;SDS011;21818;51.078;12.108;2023-04-15T03:11:32;1.83;;;1.40;;
35699;SDS011;21818;51.078;12.108;2023-04-15T03:13:58;2.45;;;1.25;;
35699;SDS011;21818;51.078;12.108;2023-04-15T03:16:23;5.00;;;1.65;;
35699;SDS011;21818;51.078;12.108;2023-04-15T03:18:49;2.97;;;2.00;;
35699;SDS011;21818;51.078;12.108;2023-04-15T03:21:15;1.80;;;1.42;;
35699;SDS011;21818;51.078;12.108;2023-04-15T03:23:41;3.38;;;1.70;;
35699;SDS011;21818;51.078;12.108;2023-04-15T03:26:07;1.88;;;1.55;;
35699;SDS011;21818;51.078;12.108;2023-04-15T03:28:32;2.00;;;1.50;;
35699;SDS011;21818;51.078;12.108;2023-04-15T03:30:58;1.65;;;1.50;;
35699;SDS011;21818;51.078;12.108;2023-04-15T03:33:24;1.90;;;1.40;;
35699;SDS011;21818;51.078;12.108;2023-04-15T03:35:50;2.20;;;1.50;;
35699;SDS011;21818;51.078;12.108;2023-04-15T03:38:16;1.77;;;1.45;;
35699;SDS011;21818;51.078;12.108;2023-04-15T03:40:42;2.05;;;1.50;;
35699;SDS011;21818;51.078;12.108;2023-04-15T03:43:08;1.70;;;1.48;;
35699;SDS011;21818;51.078;12.108;2023-04-15T03:45:34;1.95;;;1.40;;
35699;SDS011;21818;51.078;12.108;2023-04-15T03:47:59;2.47;;;1.90;;
35699;SDS011;21818;51.078;12.108;2023-04-15T03:50:25;1.83;;;1.42;;
35699;SDS011;21818;51.078;12.108;2023-04-15T03:52:51;1.65;;;1.40;;
35699;SDS011;21818;51.078;12.108;2023-04-15T03:55:17;2.70;;;1.60;;
35699;SDS011;21818;51.078;12.108;2023-04-15T03:57:43;2.45;;;1.88;;
35699;SDS011;21818;51.078;12.108;2023-04-15T04:00:09;1.55;;;1.25;;
35699;SDS011;21818;51.078;12.108;2023-04-15T04:02:35;2.95;;;1.55;;
35699;SDS011;21818;51.078;12.108;2023-04-15T04:05:00;3.15;;;1.75;;
35699;SDS011;21818;51.078;12.108;2023-04-15T04:07:26;2.80;;;1.75;;
35699;SDS011;21818;51.078;12.108;2023-04-15T04:09:52;2.33;;;1.55;;
35699;SDS011;21818;51.078;12.108;2023-04-15T04:12:17;2.63;;;1.38;;
35699;SDS011;21818;51.078;12.108;2023-04-15T04:14:43;2.65;;;1.73;;
35699;SDS011;21818;51.078;12.108;2023-04-15T04:17:08;3.10;;;1.38;;
35699;SDS011;21818;51.078;12.108;2023-04-15T04:19:34;2.63;;;1.70;;
35699;SDS011;21818;51.078;12.108;2023-04-15T04:22:00;2.65;;;1.50;;
35699;SDS011;21818;51.078;12.108;2023-04-15T04:24:26;1.85;;;1.52;;
35699;SDS011;21818;51.078;12.108;2023-04-15T04:26:51;2.45;;;1.45;;
35699;SDS011;21818;51.078;12.108;2023-04-15T04:29:17;2.08;;;1.42;;
35699;SDS011;21818;51.078;12.108;2023-04-15T04:31:42;2.50;;;1.60;;
35699;SDS011;21818;51.078;12.108;2023-04-15T04:34:08;2.53;;;1.65;;
35699;SDS011;21818;51.078;12.108;2023-04-15T04:36:33;2.80;;;1.48;;
35699;SDS011;21818;51.078;12.108;2023-04-15T04:38:59;2.13;;;1.63;;
35699;SDS011;21818;51.078;12.108;2023-04-15T04:41:25;2.88;;;1.52;;
35699;SDS011;21818;51.078;12.108;2023-04-15T04:43:50;2.03;;;1.65;;
35699;SDS011;21818;51.078;12.108;2023-04-15T04:46:16;1.92;;;1.33;;
35699;SDS011;21818;51.078;12.108;2023-04-15T04:48:42;3.30;;;1.75;;
35699;SDS011;21818;51.078;12.108;2023-04-15T04:51:07;3.85;;;2.10;;
35699;SDS011;21818;51.078;12.108;2023-04-15T04:53:33;1.88;;;1.60;;
35699;SDS011;21818;51.078;12.108;2023-04-15T04:55:59;2.65;;;1.88;;
35699;SDS011;21818;51.078;12.108;2023-04-15T04:58:25;2.65;;;1.77;;
35699;SDS011;21818;51.078;12.108;2023-04-15T05:00:51;2.25;;;1.77;;
35699;SDS011;21818;51.078;12.108;2023-04-15T05:03:16;3.17;;;2.00;;
35699;SDS011;21818;51.078;12.108;2023-04-15T05:05:42;2.92;;;2.13;;
35699;SDS011;21818;51.078;12.108;2023-04-15T05:08:07;2.58;;;1.90;;
35699;SDS011;21818;51.078;12.108;2023-04-15T05:10:33;1.88;;;1.58;;
35699;SDS011;21818;51.078;12.108;2023-04-15T05:12:59;2.70;;;1.80;;
35699;SDS011;21818;51.078;12.108;2023-04-15T05:15:24;3.17;;;2.10;;
35699;SDS011;21818;51.078;12.108;2023-04-15T05:17:50;3.25;;;1.88;;
35699;SDS011;21818;51.078;12.108;2023-04-15T05:20:16;2.72;;;2.20;;
35699;SDS011;21818;51.078;12.108;2023-04-15T05:22:42;3.53;;;1.85;;
35699;SDS011;21818;51.078;12.108;2023-04-15T05:25:07;2.80;;;1.95;;
35699;SDS011;21818;51.078;12.108;2023-04-15T05:27:33;2.42;;;1.77;;
35699;SDS011;21818;51.078;12.108;2023-04-15T05:29:59;2.28;;;1.58;;
35699;SDS011;21818;51.078;12.108;2023-04-15T05:32:25;3.30;;;2.08;;
35699;SDS011;21818;51.078;12.108;2023-04-15T05:34:50;2.55;;;1.90;;
35699;SDS011;21818;51.078;12.108;2023-04-15T05:37:16;2.45;;;1.83;;
35699;SDS011;21818;51.078;12.108;2023-04-15T05:39:44;4.25;;;1.98;;
35699;SDS011;21818;51.078;12.108;2023-04-15T05:42:10;2.30;;;1.77;;
35699;SDS011;21818;51.078;12.108;2023-04-15T05:44:36;2.42;;;1.95;;
35699;SDS011;21818;51.078;12.108;2023-04-15T05:47:01;2.50;;;1.80;;
35699;SDS011;21818;51.078;12.108;2023-04-15T05:49:27;2.88;;;1.95;;
35699;SDS011;21818;51.078;12.108;2023-04-15T05:51:53;3.08;;;1.90;;
35699;SDS011;21818;51.078;12.108;2023-04-15T05:54:18;2.13;;;1.75;;
35699;SDS011;21818;51.078;12.108;2023-04-15T05:56:45;2.50;;;1.77;;
35699;SDS011;21818;51.078;12.108;2023-04-15T05:59:11;2.13;;;1.75;;
35699;SDS011;21818;51.078;12.108;2023-04-15T06:01:37;2.10;;;1.75;;
35699;SDS011;21818;51.078;12.108;2023-04-15T06:04:02;2.38;;;1.63;;
35699;SDS011;21818;51.078;12.108;2023-04-15T06:06:28;2.22;;;1.60;;
35699;SDS011;21818;51.078;12.108;2023-04-15T06:08:53;2.80;;;1.75;;
35699;SDS011;21818;51.078;12.108;2023-04-15T06:11:19;2.63;;;1.80;;
35699;SDS011;21818;51.078;12.108;2023-04-15T06:13:46;3.00;;;1.98;;
35699;SDS011;21818;51.078;12.108;2023-04-15T06:16:11;2.40;;;1.70;;
35699;SDS011;21818;51.078;12.108;2023-04-15T06:18:37;2.83;;;2.10;;
35699;SDS011;21818;51.078;12.108;2023-04-15T06:21:03;1.77;;;1.58;;
35699;SDS011;21818;51.078;12.108;2023-04-15T06:23:29;2.63;;;1.92;;
35699;SDS011;21818;51.078;12.108;2023-04-15T06:25:54;2.05;;;1.73;;
35699;SDS011;21818;51.078;12.108;2023-04-15T06:28:20;2.20;;;1.67;;
35699;SDS011;21818;51.078;12.108;2023-04-15T06:30:45;2.95;;;1.70;;
35699;SDS011;21818;51.078;12.108;2023-04-15T06:33:11;2.45;;;1.90;;
35699;SDS011;21818;51.078;12.108;2023-04-15T06:35:37;2.17;;;1.83;;
35699;SDS011;21818;51.078;12.108;2023-04-15T06:38:03;20.95;;;6.05;;
35699;SDS011;21818;51.078;12.108;2023-04-15T06:40:29;18.17;;;3.92;;
35699;SDS011;21818;51.078;12.108;2023-04-15T06:42:55;15.30;;;3.78;;
35699;SDS011;21818;51.078;12.108;2023-04-15T06:45:20;6.13;;;1.80;;
35699;SDS011;21818;51.078;12.108;2023-04-15T06:47:46;11.50;;;2.60;;
35699;SDS011;21818;51.078;12.108;2023-04-15T06:50:11;8.60;;;2.53;;
35699;SDS011;21818;51.078;12.108;2023-04-15T06:52:37;11.52;;;2.20;;
35699;SDS011;21818;51.078;12.108;2023-04-15T06:55:03;8.10;;;1.80;;
35699;SDS011;21818;51.078;12.108;2023-04-15T06:57:29;9.38;;;1.83;;
35699;SDS011;21818;51.078;12.108;2023-04-15T06:59:55;10.98;;;1.95;;
35699;SDS011;21818;51.078;12.108;2023-04-15T07:02:20;10.27;;;2.25;;
35699;SDS011;21818;51.078;12.108;2023-04-15T07:04:46;9.90;;;2.10;;
35699;SDS011;21818;51.078;12.108;2023-04-15T07:07:12;7.53;;;1.77;;
35699;SDS011;21818;51.078;12.108;2023-04-15T07:09:39;8.70;;;1.90;;
35699;SDS011;21818;51.078;12.108;2023-04-15T07:12:04;14.25;;;3.47;;
35699;SDS011;21818;51.078;12.108;2023-04-15T07:14:30;11.75;;;2.00;;
35699;SDS011;21818;51.078;12.108;2023-04-15T07:16:55;8.82;;;1.88;;
35699;SDS011;21818;51.078;12.108;2023-04-15T07:19:21;5.57;;;1.88;;
35699;SDS011;21818;51.078;12.108;2023-04-15T07:21:47;9.15;;;1.95;;
35699;SDS011;21818;51.078;12.108;2023-04-15T07:24:13;9.90;;;1.88;;
35699;SDS011;21818;51.078;12.108;2023-04-15T07:26:42;10.02;;;2.08;;
35699;SDS011;21818;51.078;12.108;2023-04-15T07:29:08;4.82;;;1.73;;
35699;SDS011;21818;51.078;12.108;2023-04-15T07:31:34;5.47;;;1.58;;
35699;SDS011;21818;51.078;12.108;2023-04-15T07:34:01;7.03;;;2.03;;
35699;SDS011;21818;51.078;12.108;2023-04-15T07:36:27;7.47;;;2.60;;
35699;SDS011;21818;51.078;12.108;2023-04-15T07:38:54;7.53;;;1.73;;
35699;SDS011;21818;51.078;12.108;2023-04-15T07:41:20;8.02;;;1.83;;
35699;SDS011;21818;51.078;12.108;2023-04-15T07:43:45;7.30;;;1.77;;
35699;SDS011;21818;51.078;12.108;2023-04-15T07:46:12;7.28;;;1.88;;
35699;SDS011;21818;51.078;12.108;2023-04-15T07:48:38;9.80;;;1.70;;
35699;SDS011;21818;51.078;12.108;2023-04-15T07:51:04;8.18;;;1.67;;
35699;SDS011;21818;51.078;12.108;2023-04-15T07:53:29;9.68;;;1.55;;
35699;SDS011;21818;51.078;12.108;2023-04-15T07:55:56;9.70;;;1.92;;
35699;SDS011;21818;51.078;12.108;2023-04-15T07:58:22;6.63;;;1.42;;
35699;SDS011;21818;51.078;12.108;2023-04-15T08:00:48;4.32;;;1.17;;
35699;SDS011;21818;51.078;12.108;2023-04-15T08:03:13;11.95;;;1.67;;
35699;SDS011;21818;51.078;12.108;2023-04-15T08:05:39;4.82;;;1.73;;
35699;SDS011;21818;51.078;12.108;2023-04-15T08:08:05;3.55;;;1.23;;
35699;SDS011;21818;51.078;12.108;2023-04-15T08:10:31;4.55;;;1.55;;
35699;SDS011;21818;51.078;12.108;2023-04-15T08:12:56;3.92;;;1.38;;
35699;SDS011;21818;51.078;12.108;2023-04-15T08:15:22;5.22;;;1.30;;
35699;SDS011;21818;51.078;12.108;2023-04-15T08:17:48;4.20;;;1.42;;
35699;SDS011;21818;51.078;12.108;2023-04-15T08:20:13;10.55;;;1.60;;
35699;SDS011;21818;51.078;12.108;2023-04-15T08:22:39;5.32;;;1.40;;
35699;SDS011;21818;51.078;12.108;2023-04-15T08:25:05;4.75;;;1.20;;
35699;SDS011;21818;51.078;12.108;2023-04-15T08:27:31;5.63;;;1.73;;
35699;SDS011;21818;51.078;12.108;2023-04-15T08:29:56;8.20;;;1.52;;
35699;SDS011;21818;51.078;12.108;2023-04-15T08:32:22;4.90;;;1.35;;
35699;SDS011;21818;51.078;12.108;2023-04-15T08:34:50;3.40;;;1.30;;
35699;SDS011;21818;51.078;12.108;2023-04-15T08:37:15;6.20;;;1.30;;
35699;SDS011;21818;51.078;12.108;2023-04-15T08:39:41;6.93;;;1.33;;
35699;SDS011;21818;51.078;12.108;2023-04-15T08:42:10;6.47;;;1.30;;
35699;SDS011;21818;51.078;12.108;2023-04-15T08:44:40;6.18;;;1.48;;
35699;SDS011;21818;51.078;12.108;2023-04-15T08:47:08;3.53;;;1.48;;
35699;SDS011;21818;51.078;12.108;2023-04-15T08:49:38;4.93;;;1.15;;
35699;SDS011;21818;51.078;12.108;2023-04-15T08:52:05;5.22;;;1.27;;
35699;SDS011;21818;51.078;12.108;2023-04-15T08:54:33;5.30;;;1.20;;
35699;SDS011;21818;51.078;12.108;2023-04-15T08:56:59;5.15;;;1.73;;
35699;SDS011;21818;51.078;12.108;2023-04-15T08:59:26;6.45;;;1.33;;
35699;SDS011;21818;51.078;12.108;2023-04-15T09:01:54;6.15;;;1.77;;
35699;SDS011;21818;51.078;12.108;2023-04-15T09:04:21;8.43;;;1.38;;
35699;SDS011;21818;51.078;12.108;2023-04-15T09:06:46;4.85;;;1.15;;
35699;SDS011;21818;51.078;12.108;2023-04-15T09:09:12;9.93;;;1.42;;
35699;SDS011;21818;51.078;12.108;2023-04-15T09:11:38;3.22;;;1.15;;
35699;SDS011;21818;51.078;12.108;2023-04-15T09:14:04;3.45;;;1.20;;
35699;SDS011;21818;51.078;12.108;2023-04-15T09:16:29;2.10;;;1.10;;
35699;SDS011;21818;51.078;12.108;2023-04-15T09:18:55;6.05;;;1.38;;
35699;SDS011;21818;51.078;12.108;2023-04-15T09:21:21;2.97;;;1.02;;
35699;SDS011;21818;51.078;12.108;2023-04-15T09:23:54;6.78;;;1.33;;
35699;SDS011;21818;51.078;12.108;2023-04-15T09:26:31;3.45;;;1.20;;
35699;SDS011;21818;51.078;12.108;2023-04-15T09:29:07;3.08;;;1.00;;
35699;SDS011;21818;51.078;12.108;2023-04-15T09:31:34;3.75;;;1.23;;
35699;SDS011;21818;51.078;12.108;2023-04-15T09:34:00;6.45;;;1.38;;
35699;SDS011;21818;51.078;12.108;2023-04-15T09:36:26;3.35;;;1.20;;
35699;SDS011;21818;51.078;12.108;2023-04-15T09:38:56;4.85;;;1.45;;
35699;SDS011;21818;51.078;12.108;2023-04-15T09:41:22;7.95;;;1.80;;
35699;SDS011;21818;51.078;12.108;2023-04-15T09:43:49;2.65;;;1.27;;
35699;SDS011;21818;51.078;12.108;2023-04-15T09:46:15;3.00;;;1.20;;
35699;SDS011;21818;51.078;12.108;2023-04-15T09:48:40;4.35;;;1.30;;
35699;SDS011;21818;51.078;12.108;2023-04-15T09:51:06;3.50;;;1.30;;
35699;SDS011;21818;51.078;12.108;2023-04-15T09:53:33;2.80;;;0.77;;
35699;SDS011;21818;51.078;12.108;2023-04-15T09:56:00;3.38;;;1.20;;
35699;SDS011;21818;51.078;12.108;2023-04-15T09:58:27;3.50;;;1.23;;
35699;SDS011;21818;51.078;12.108;2023-04-15T10:00:58;3.70;;;1.33;;
35699;SDS011;21818;51.078;12.108;2023-04-15T10:03:26;2.35;;;1.00;;
35699;SDS011;21818;51.078;12.108;2023-04-15T10:05:54;3.15;;;1.17;;
35699;SDS011;21818;51.078;12.108;2023-04-15T10:08:22;3.25;;;1.38;;
35699;SDS011;21818;51.078;12.108;2023-04-15T10:10:49;4.35;;;1.30;;
35699;SDS011;21818;51.078;12.108;2023-04-15T10:13:19;3.42;;;1.45;;
35699;SDS011;21818;51.078;12.108;2023-04-15T10:16:04;3.72;;;1.10;;
35699;SDS011;21818;51.078;12.108;2023-04-15T10:18:31;6.63;;;1.23;;
35699;SDS011;21818;51.078;12.108;2023-04-15T10:20:59;4.00;;;1.45;;
35699;SDS011;21818;51.078;12.108;2023-04-15T10:23:25;3.40;;;1.05;;
35699;SDS011;21818;51.078;12.108;2023-04-15T10:25:51;2.60;;;1.17;;
35699;SDS011;21818;51.078;12.108;2023-04-15T10:28:18;3.65;;;1.08;;
35699;SDS011;21818;51.078;12.108;2023-04-15T10:30:44;4.13;;;1.83;;
35699;SDS011;21818;51.078;12.108;2023-04-15T10:33:11;5.40;;;1.05;;
35699;SDS011;21818;51.078;12.108;2023-04-15T10:35:38;1.85;;;1.00;;
35699;SDS011;21818;51.078;12.108;2023-04-15T10:41:30;1.98;;;1.10;;
35699;SDS011;21818;51.078;12.108;2023-04-15T10:46:38;3.00;;;1.20;;
35699;SDS011;21818;51.078;12.108;2023-04-15T10:51:35;1.80;;;1.00;;
35699;SDS011;21818;51.078;12.108;2023-04-15T10:54:06;2.08;;;1.20;;
35699;SDS011;21818;51.078;12.108;2023-04-15T10:56:37;4.05;;;1.02;;
35699;SDS011;21818;51.078;12.108;2023-04-15T10:59:05;3.28;;;0.80;;
35699;SDS011;21818;51.078;12.108;2023-04-15T11:01:50;4.43;;;1.00;;
35699;SDS011;21818;51.078;12.108;2023-04-15T11:08:03;1.90;;;0.90;;
35699;SDS011;21818;51.078;12.108;2023-04-15T11:12:42;5.78;;;1.40;;
35699;SDS011;21818;51.078;12.108;2023-04-15T11:15:33;3.25;;;1.08;;
35699;SDS011;21818;51.078;12.108;2023-04-15T11:18:16;4.82;;;1.35;;
35699;SDS011;21818;51.078;12.108;2023-04-15T11:23:20;3.75;;;2.03;;
35699;SDS011;21818;51.078;12.108;2023-04-15T11:25:59;2.38;;;1.10;;
35699;SDS011;21818;51.078;12.108;2023-04-15T11:28:34;3.17;;;1.30;;
35699;SDS011;21818;51.078;12.108;2023-04-15T11:31:21;2.90;;;1.10;;
35699;SDS011;21818;51.078;12.108;2023-04-15T11:33:54;3.72;;;1.02;;
35699;SDS011;21818;51.078;12.108;2023-04-15T11:36:23;3.65;;;1.00;;
35699;SDS011;21818;51.078;12.108;2023-04-15T11:38:53;4.18;;;0.88;;
35699;SDS011;21818;51.078;12.108;2023-04-15T11:41:20;3.70;;;1.08;;
35699;SDS011;21818;51.078;12.108;2023-04-15T11:43:47;2.03;;;0.88;;
35699;SDS011;21818;51.078;12.108;2023-04-15T11:46:13;3.72;;;1.25;;
35699;SDS011;21818;51.078;12.108;2023-04-15T11:48:41;2.58;;;1.00;;
35699;SDS011;21818;51.078;12.108;2023-04-15T11:51:08;3.78;;;0.77;;
35699;SDS011;21818;51.078;12.108;2023-04-15T11:56:18;3.20;;;1.10;;
35699;SDS011;21818;51.078;12.108;2023-04-15T11:58:55;2.97;;;1.05;;
35699;SDS011;21818;51.078;12.108;2023-04-15T12:01:31;1.85;;;0.88;;
35699;SDS011;21818;51.078;12.108;2023-04-15T12:03:57;2.22;;;1.10;;
35699;SDS011;21818;51.078;12.108;2023-04-15T12:06:28;2.35;;;0.82;;
35699;SDS011;21818;51.078;12.108;2023-04-15T12:09:03;2.17;;;0.98;;
35699;SDS011;21818;51.078;12.108;2023-04-15T12:11:41;2.55;;;1.08;;
35699;SDS011;21818;51.078;12.108;2023-04-15T12:14:12;2.47;;;1.17;;
35699;SDS011;21818;51.078;12.108;2023-04-15T12:16:44;2.13;;;1.17;;
35699;SDS011;21818;51.078;12.108;2023-04-15T12:19:11;2.13;;;0.90;;
35699;SDS011;21818;51.078;12.108;2023-04-15T12:21:39;1.48;;;0.93;;
35699;SDS011;21818;51.078;12.108;2023-04-15T12:24:08;2.63;;;1.00;;
35699;SDS011;21818;51.078;12.108;2023-04-15T12:26:46;2.60;;;0.90;;
35699;SDS011;21818;51.078;12.108;2023-04-15T12:29:14;2.35;;;0.95;;
35699;SDS011;21818;51.078;12.108;2023-04-15T12:34:13;4.13;;;1.30;;
35699;SDS011;21818;51.078;12.108;2023-04-15T12:36:39;3.97;;;0.80;;
35699;SDS011;21818;51.078;12.108;2023-04-15T12:39:05;2.83;;;0.80;;
35699;SDS011;21818;51.078;12.108;2023-04-15T12:41:31;3.20;;;0.82;;
35699;SDS011;21818;51.078;12.108;2023-04-15T12:43:57;3.20;;;0.90;;
35699;SDS011;21818;51.078;12.108;2023-04-15T12:46:23;2.78;;;0.73;;
35699;SDS011;21818;51.078;12.108;2023-04-15T12:48:49;2.38;;;0.98;;
35699;SDS011;21818;51.078;12.108;2023-04-15T12:51:16;2.30;;;1.10;;
35699;SDS011;21818;51.078;12.108;2023-04-15T12:53:42;1.73;;;0.70;;
35699;SDS011;21818;51.078;12.108;2023-04-15T12:56:08;3.05;;;1.25;;
35699;SDS011;21818;51.078;12.108;2023-04-15T12:58:33;2.75;;;1.23;;
35699;SDS011;21818;51.078;12.108;2023-04-15T13:00:59;3.67;;;1.15;;
35699;SDS011;21818;51.078;12.108;2023-04-15T13:03:25;3.15;;;0.85;;
35699;SDS011;21818;51.078;12.108;2023-04-15T13:05:51;1.65;;;1.08;;
35699;SDS011;21818;51.078;12.108;2023-04-15T13:08:17;1.30;;;0.70;;
35699;SDS011;21818;51.078;12.108;2023-04-15T13:10:43;2.78;;;1.10;;
35699;SDS011;21818;51.078;12.108;2023-04-15T13:13:08;2.22;;;1.20;;
35699;SDS011;21818;51.078;12.108;2023-04-15T13:15:34;2.83;;;1.38;;
35699;SDS011;21818;51.078;12.108;2023-04-15T13:18:00;1.83;;;1.02;;
35699;SDS011;21818;51.078;12.108;2023-04-15T13:20:25;1.92;;;1.17;;
35699;SDS011;21818;51.078;12.108;2023-04-15T13:22:52;2.40;;;1.23;;
35699;SDS011;21818;51.078;12.108;2023-04-15T13:25:17;1.98;;;0.90;;
35699;SDS011;21818;51.078;12.108;2023-04-15T13:27:43;2.70;;;0.75;;
35699;SDS011;21818;51.078;12.108;2023-04-15T13:30:09;1.48;;;0.70;;
35699;SDS011;21818;51.078;12.108;2023-04-15T13:32:34;1.35;;;0.73;;
35699;SDS011;21818;51.078;12.108;2023-04-15T13:35:00;1.95;;;0.80;;
35699;SDS011;21818;51.078;12.108;2023-04-15T13:37:26;1.83;;;0.70;;
35699;SDS011;21818;51.078;12.108;2023-04-15T13:39:52;2.95;;;0.80;;
35699;SDS011;21818;51.078;12.108;2023-04-15T13:42:18;1.77;;;0.80;;
35699;SDS011;21818;51.078;12.108;2023-04-15T13:44:44;2.53;;;0.98;;
35699;SDS011;21818;51.078;12.108;2023-04-15T13:47:10;1.98;;;0.80;;
35699;SDS011;21818;51.078;12.108;2023-04-15T13:49:35;1.83;;;0.88;;
35699;SDS011;21818;51.078;12.108;2023-04-15T13:52:01;1.85;;;0.70;;
35699;SDS011;21818;51.078;12.108;2023-04-15T13:54:26;2.13;;;0.95;;
35699;SDS011;21818;51.078;12.108;2023-04-15T13:56:53;1.70;;;0.80;;
35699;SDS011;21818;51.078;12.108;2023-04-15T13:59:20;2.20;;;0.88;;
35699;SDS011;21818;51.078;12.108;2023-04-15T14:01:45;1.42;;;0.85;;
35699;SDS011;21818;51.078;12.108;2023-04-15T14:04:12;1.75;;;0.73;;
35699;SDS011;21818;51.078;12.108;2023-04-15T14:06:37;1.98;;;0.77;;
35699;SDS011;21818;51.078;12.108;2023-04-15T14:09:03;2.90;;;0.85;;
35699;SDS011;21818;51.078;12.108;2023-04-15T14:11:28;1.98;;;1.00;;
35699;SDS011;21818;51.078;12.108;2023-04-15T14:13:54;1.70;;;0.90;;
35699;SDS011;21818;51.078;12.108;2023-04-15T14:16:19;2.00;;;0.85;;
35699;SDS011;21818;51.078;12.108;2023-04-15T14:18:45;1.90;;;0.63;;
35699;SDS011;21818;51.078;12.108;2023-04-15T14:21:11;2.50;;;1.08;;
35699;SDS011;21818;51.078;12.108;2023-04-15T14:23:36;2.05;;;0.80;;
35699;SDS011;21818;51.078;12.108;2023-04-15T14:26:02;2.25;;;0.70;;
35699;SDS011;21818;51.078;12.108;2023-04-15T14:28:28;1.05;;;0.63;;
35699;SDS011;21818;51.078;12.108;2023-04-15T14:30:53;2.42;;;1.23;;
35699;SDS011;21818;51.078;12.108;2023-04-15T14:33:19;2.38;;;0.93;;
35699;SDS011;21818;51.078;12.108;2023-04-15T14:35:44;2.75;;;0.85;;
35699;SDS011;21818;51.078;12.108;2023-04-15T14:38:10;0.88;;;0.63;;
35699;SDS011;21818;51.078;12.108;2023-04-15T14:40:35;2.53;;;0.90;;
35699;SDS011;21818;51.078;12.108;2023-04-15T14:43:01;1.40;;;0.75;;
35699;SDS011;21818;51.078;12.108;2023-04-15T14:45:27;2.28;;;1.00;;
35699;SDS011;21818;51.078;12.108;2023-04-15T14:47:54;2.45;;;0.90;;
35699;SDS011;21818;51.078;12.108;2023-04-15T14:50:20;0.80;;;0.50;;
35699;SDS011;21818;51.078;12.108;2023-04-15T14:52:46;1.50;;;0.70;;